sensor_id;sensor_type;location;lat;lon;timestamp;pressure;altitude;pressure_sealevel;temperature;humidity
46408;BME280;32110;45.724;21.276;2023-02-14T00:01:41;102346.50;;;-0.28;nan
46408;BME280;32110;45.724;21.276;2023-02-14T00:04:06;102309.03;;;-0.35;nan
46408;BME280;32110;45.724;21.276;2023-02-14T00:06:33;102319.06;;;-0.31;nan
46408;BME280;32110;45.724;21.276;2023-02-14T00:09:06;102330.34;;;-0.32;nan
46408;BME280;32110;45.724;21.276;2023-02-14T00:11:32;102346.09;;;-0.35;nan
46408;BME280;32110;45.724;21.276;2023-02-14T00:13:58;102337.81;;;-0.40;nan
46408;BME280;32110;45.724;21.276;2023-02-14T00:16:42;102332.34;;;-0.35;nan
46408;BME280;32110;45.724;21.276;2023-02-14T00:19:10;102327.88;;;-0.46;nan
46408;BME280;32110;45.724;21.276;2023-02-14T00:21:37;102314.66;;;-0.54;nan
46408;BME280;32110;45.724;21.276;2023-02-14T00:24:10;102311.53;;;-0.47;nan
46408;BME280;32110;45.724;21.276;2023-02-14T00:26:36;102328.81;;;-0.47;nan
46408;BME280;32110;45.724;21.276;2023-02-14T00:29:06;102327.16;;;-0.48;nan
46408;BME280;32110;45.724;21.276;2023-02-14T00:31:32;102307.81;;;-0.55;nan
46408;BME280;32110;45.724;21.276;2023-02-14T00:33:58;102285.78;;;-0.74;nan
46408;BME280;32110;45.724;21.276;2023-02-14T07:18:50;102306.78;;;-1.04;nan
46408;BME280;32110;45.724;21.276;2023-02-14T07:21:16;102262.69;;;-1.28;nan
46408;BME280;32110;45.724;21.276;2023-02-14T07:23:41;102258.88;;;-1.22;nan
46408;BME280;32110;45.724;21.276;2023-02-14T07:26:10;102267.78;;;-1.14;nan
46408;BME280;32110;45.724;21.276;2023-02-14T07:28:36;102272.25;;;-1.03;nan
46408;BME280;32110;45.724;21.276;2023-02-14T07:31:01;102244.41;;;-1.12;nan
46408;BME280;32110;45.724;21.276;2023-02-14T07:33:27;102267.28;;;-0.93;nan
46408;BME280;32110;45.724;21.276;2023-02-14T07:35:53;102281.53;;;-0.88;nan
46408;BME280;32110;45.724;21.276;2023-02-14T07:38:18;102272.03;;;-0.87;nan
46408;BME280;32110;45.724;21.276;2023-02-14T07:40:44;102278.03;;;-0.74;nan
46408;BME280;32110;45.724;21.276;2023-02-14T07:43:09;102285.16;;;-0.65;nan
46408;BME280;32110;45.724;21.276;2023-02-14T07:45:34;102274.47;;;-0.60;nan
46408;BME280;32110;45.724;21.276;2023-02-14T07:48:00;102277.38;;;-0.52;nan
46408;BME280;32110;45.724;21.276;2023-02-14T07:50:26;102274.25;;;-0.44;nan
46408;BME280;32110;45.724;21.276;2023-02-14T07:52:52;102275.47;;;-0.37;nan
46408;BME280;32110;45.724;21.276;2023-02-14T07:55:18;102277.84;;;-0.34;nan
46408;BME280;32110;45.724;21.276;2023-02-14T07:57:46;102276.72;;;-0.30;nan
46408;BME280;32110;45.724;21.276;2023-02-14T08:00:12;102262.72;;;-0.27;nan
46408;BME280;32110;45.724;21.276;2023-02-14T08:02:38;102278.44;;;-0.17;nan
46408;BME280;32110;45.724;21.276;2023-02-14T08:05:04;102266.84;;;-0.12;nan
46408;BME280;32110;45.724;21.276;2023-02-14T08:07:29;102266.69;;;0.03;nan
46408;BME280;32110;45.724;21.276;2023-02-14T08:09:54;102265.72;;;0.04;nan
46408;BME280;32110;45.724;21.276;2023-02-14T08:12:20;102255.97;;;0.07;nan
46408;BME280;32110;45.724;21.276;2023-02-14T08:15:04;102280.22;;;0.30;nan
46408;BME280;32110;45.724;21.276;2023-02-14T08:17:48;102272.94;;;0.35;nan
46408;BME280;32110;45.724;21.276;2023-02-14T08:20:13;102265.88;;;0.37;nan
46408;BME280;32110;45.724;21.276;2023-02-14T08:22:39;102273.56;;;0.50;nan
46408;BME280;32110;45.724;21.276;2023-02-14T08:25:05;102251.81;;;0.53;nan
46408;BME280;32110;45.724;21.276;2023-02-14T08:27:30;102274.09;;;0.67;nan
46408;BME280;32110;45.724;21.276;2023-02-14T08:29:56;102283.56;;;0.79;nan
46408;BME280;32110;45.724;21.276;2023-02-14T08:32:21;102274.91;;;0.91;nan
46408;BME280;32110;45.724;21.276;2023-02-14T08:34:46;102269.34;;;0.96;nan
46408;BME280;32110;45.724;21.276;2023-02-14T08:37:12;102278.56;;;1.11;nan
46408;BME280;32110;45.724;21.276;2023-02-14T08:39:38;102277.88;;;1.20;nan
46408;BME280;32110;45.724;21.276;2023-02-14T08:42:03;102265.63;;;1.22;nan
46408;BME280;32110;45.724;21.276;2023-02-14T08:44:29;102264.41;;;1.38;nan
46408;BME280;32110;45.724;21.276;2023-02-14T08:46:54;102252.88;;;1.42;nan
46408;BME280;32110;45.724;21.276;2023-02-14T08:49:19;102259.44;;;1.46;nan
46408;BME280;32110;45.724;21.276;2023-02-14T08:51:45;102261.59;;;1.52;nan
46408;BME280;32110;45.724;21.276;2023-02-14T08:54:10;102265.66;;;1.77;nan
46408;BME280;32110;45.724;21.276;2023-02-14T08:56:35;102251.16;;;2.18;nan
46408;BME280;32110;45.724;21.276;2023-02-14T08:59:02;102264.69;;;2.33;nan
46408;BME280;32110;45.724;21.276;2023-02-14T09:01:28;102256.06;;;2.32;nan
46408;BME280;32110;45.724;21.276;2023-02-14T09:03:53;102240.97;;;2.26;nan
46408;BME280;32110;45.724;21.276;2023-02-14T09:06:19;102249.09;;;2.33;nan
46408;BME280;32110;45.724;21.276;2023-02-14T09:08:45;102257.66;;;2.45;nan
46408;BME280;32110;45.724;21.276;2023-02-14T09:11:19;102270.81;;;2.64;nan
46408;BME280;32110;45.724;21.276;2023-02-14T09:13:47;102282.09;;;2.74;nan
46408;BME280;32110;45.724;21.276;2023-02-14T09:16:14;102281.06;;;2.87;nan
46408;BME280;32110;45.724;21.276;2023-02-14T09:18:42;102240.31;;;2.66;nan
46408;BME280;32110;45.724;21.276;2023-02-14T09:21:10;102285.84;;;3.03;nan
46408;BME280;32110;45.724;21.276;2023-02-14T09:23:36;102279.53;;;3.05;nan
46408;BME280;32110;45.724;21.276;2023-02-14T09:26:04;102293.03;;;3.20;nan
46408;BME280;32110;45.724;21.276;2023-02-14T09:28:29;102286.50;;;3.26;nan
46408;BME280;32110;45.724;21.276;2023-02-14T09:30:55;102272.53;;;3.27;nan
46408;BME280;32110;45.724;21.276;2023-02-14T09:33:21;102288.81;;;3.50;nan
46408;BME280;32110;45.724;21.276;2023-02-14T09:35:47;102290.56;;;3.49;nan
46408;BME280;32110;45.724;21.276;2023-02-14T09:38:13;102292.25;;;3.60;nan
46408;BME280;32110;45.724;21.276;2023-02-14T09:40:38;102298.19;;;3.72;nan
46408;BME280;32110;45.724;21.276;2023-02-14T09:45:38;102297.25;;;3.82;nan
46408;BME280;32110;45.724;21.276;2023-02-14T09:48:16;102295.91;;;3.88;nan
46408;BME280;32110;45.724;21.276;2023-02-14T09:50:48;102286.97;;;3.81;nan
46408;BME280;32110;45.724;21.276;2023-02-14T09:55:48;102280.81;;;3.92;nan
46408;BME280;32110;45.724;21.276;2023-02-14T09:58:21;102295.66;;;4.11;nan
46408;BME280;32110;45.724;21.276;2023-02-14T10:01:32;102294.72;;;4.21;nan
46408;BME280;32110;45.724;21.276;2023-02-14T10:07:18;102297.19;;;4.33;nan
46408;BME280;32110;45.724;21.276;2023-02-14T10:10:15;102298.69;;;4.45;nan
46408;BME280;32110;45.724;21.276;2023-02-14T10:12:50;102296.91;;;4.55;nan
46408;BME280;32110;45.724;21.276;2023-02-14T10:15:22;102288.69;;;4.60;nan
46408;BME280;32110;45.724;21.276;2023-02-14T10:18:11;102292.63;;;4.74;nan
46408;BME280;32110;45.724;21.276;2023-02-14T10:20:48;102292.22;;;4.78;nan
46408;BME280;32110;45.724;21.276;2023-02-14T10:23:36;102283.53;;;4.87;nan
46408;BME280;32110;45.724;21.276;2023-02-14T10:28:42;102284.72;;;5.13;nan
46408;BME280;32110;45.724;21.276;2023-02-14T10:31:22;102288.81;;;5.25;nan
46408;BME280;32110;45.724;21.276;2023-02-14T10:34:00;102274.47;;;5.29;nan
46408;BME280;32110;45.724;21.276;2023-02-14T10:36:44;102295.06;;;5.42;nan
46408;BME280;32110;45.724;21.276;2023-02-14T10:42:52;102281.13;;;5.51;nan
46408;BME280;32110;45.724;21.276;2023-02-14T10:51:18;102285.00;;;5.47;nan
46408;BME280;32110;45.724;21.276;2023-02-14T10:56:53;102282.81;;;5.42;nan
46408;BME280;32110;45.724;21.276;2023-02-14T10:59:29;102269.25;;;5.29;nan
46408;BME280;32110;45.724;21.276;2023-02-14T11:01:58;102273.22;;;5.33;nan
46408;BME280;32110;45.724;21.276;2023-02-14T11:04:25;102273.78;;;5.37;nan
46408;BME280;32110;45.724;21.276;2023-02-14T11:06:51;102267.00;;;5.44;nan
46408;BME280;32110;45.724;21.276;2023-02-14T11:09:17;102253.16;;;5.33;nan
46408;BME280;32110;45.724;21.276;2023-02-14T11:11:50;102274.56;;;5.47;nan
46408;BME280;32110;45.724;21.276;2023-02-14T11:16:46;102258.56;;;5.50;nan
46408;BME280;32110;45.724;21.276;2023-02-14T11:19:25;102258.44;;;5.51;nan
46408;BME280;32110;45.724;21.276;2023-02-14T11:21:53;102250.72;;;5.50;nan
46408;BME280;32110;45.724;21.276;2023-02-14T11:26:58;102255.38;;;5.56;nan
46408;BME280;32110;45.724;21.276;2023-02-14T11:29:35;102257.41;;;5.62;nan
46408;BME280;32110;45.724;21.276;2023-02-14T11:32:14;102253.69;;;5.65;nan
46408;BME280;32110;45.724;21.276;2023-02-14T11:34:44;102252.03;;;5.64;nan
46408;BME280;32110;45.724;21.276;2023-02-14T11:37:38;102254.22;;;5.68;nan
46408;BME280;32110;45.724;21.276;2023-02-14T11:40:22;102255.84;;;5.69;nan
46408;BME280;32110;45.724;21.276;2023-02-14T11:42:48;102234.72;;;5.63;nan
46408;BME280;32110;45.724;21.276;2023-02-14T11:45:34;102253.19;;;5.79;nan
46408;BME280;32110;45.724;21.276;2023-02-14T11:50:37;102230.25;;;5.73;nan
46408;BME280;32110;45.724;21.276;2023-02-14T11:53:03;102238.72;;;5.85;nan
46408;BME280;32110;45.724;21.276;2023-02-14T11:55:31;102241.03;;;5.88;nan
46408;BME280;32110;45.724;21.276;2023-02-14T11:58:02;102231.00;;;5.83;nan
46408;BME280;32110;45.724;21.276;2023-02-14T12:00:30;102232.66;;;5.84;nan
46408;BME280;32110;45.724;21.276;2023-02-14T12:02:58;102233.63;;;5.83;nan
46408;BME280;32110;45.724;21.276;2023-02-14T12:05:27;102225.47;;;5.86;nan
46408;BME280;32110;45.724;21.276;2023-02-14T12:07:59;102202.84;;;5.77;nan
46408;BME280;32110;45.724;21.276;2023-02-14T12:10:29;102220.47;;;5.93;nan
46408;BME280;32110;45.724;21.276;2023-02-14T12:15:48;102217.59;;;5.96;nan
46408;BME280;32110;45.724;21.276;2023-02-14T12:24:14;102208.47;;;6.00;nan
46408;BME280;32110;45.724;21.276;2023-02-14T12:26:44;102192.28;;;5.96;nan
46408;BME280;32110;45.724;21.276;2023-02-14T12:29:24;102200.19;;;6.05;nan
46408;BME280;32110;45.724;21.276;2023-02-14T12:31:55;102203.78;;;6.04;nan
46408;BME280;32110;45.724;21.276;2023-02-14T12:34:23;102194.13;;;6.04;nan
46408;BME280;32110;45.724;21.276;2023-02-14T12:50:37;102199.34;;;6.22;nan
46408;BME280;32110;45.724;21.276;2023-02-14T13:26:51;102180.22;;;6.22;nan
46408;BME280;32110;45.724;21.276;2023-02-14T13:29:31;102176.63;;;6.23;nan
46408;BME280;32110;45.724;21.276;2023-02-14T13:32:02;102169.44;;;6.25;nan
46408;BME280;32110;45.724;21.276;2023-02-14T13:34:38;102175.28;;;6.18;nan
46408;BME280;32110;45.724;21.276;2023-02-14T13:37:10;102130.66;;;5.94;nan
46408;BME280;32110;45.724;21.276;2023-02-14T14:04:55;102175.97;;;6.03;nan
46408;BME280;32110;45.724;21.276;2023-02-14T14:07:26;102174.47;;;6.00;nan
46408;BME280;32110;45.724;21.276;2023-02-14T14:09:57;102168.81;;;6.05;nan
46408;BME280;32110;45.724;21.276;2023-02-14T14:17:31;102168.66;;;6.06;nan
46408;BME280;32110;45.724;21.276;2023-02-14T14:19:58;102155.06;;;6.03;nan
46408;BME280;32110;45.724;21.276;2023-02-14T14:22:26;102164.03;;;6.00;nan
46408;BME280;32110;45.724;21.276;2023-02-14T14:25:01;102157.72;;;5.93;nan
46408;BME280;32110;45.724;21.276;2023-02-14T14:27:35;102171.59;;;5.93;nan
46408;BME280;32110;45.724;21.276;2023-02-14T14:30:26;102161.03;;;5.95;nan
46408;BME280;32110;45.724;21.276;2023-02-14T14:32:55;102147.22;;;5.85;nan
46408;BME280;32110;45.724;21.276;2023-02-14T14:35:23;102161.16;;;5.93;nan
46408;BME280;32110;45.724;21.276;2023-02-14T14:37:53;102160.34;;;5.93;nan
46408;BME280;32110;45.724;21.276;2023-02-14T14:42:47;102142.25;;;5.82;nan
46408;BME280;32110;45.724;21.276;2023-02-14T14:45:22;102153.38;;;5.84;nan
46408;BME280;32110;45.724;21.276;2023-02-14T14:48:01;102150.94;;;5.82;nan
46408;BME280;32110;45.724;21.276;2023-02-14T14:50:33;102150.09;;;5.82;nan
46408;BME280;32110;45.724;21.276;2023-02-14T14:53:07;102168.50;;;5.90;nan
46408;BME280;32110;45.724;21.276;2023-02-14T14:55:38;102155.88;;;5.85;nan
46408;BME280;32110;45.724;21.276;2023-02-14T15:00:53;102146.09;;;5.87;nan
46408;BME280;32110;45.724;21.276;2023-02-14T15:03:22;102153.13;;;5.87;nan
46408;BME280;32110;45.724;21.276;2023-02-14T15:05:50;102148.03;;;5.85;nan
46408;BME280;32110;45.724;21.276;2023-02-14T15:08:28;102157.50;;;5.86;nan
46408;BME280;32110;45.724;21.276;2023-02-14T15:11:23;102161.31;;;5.92;nan
46408;BME280;32110;45.724;21.276;2023-02-14T15:14:14;102149.97;;;5.83;nan
46408;BME280;32110;45.724;21.276;2023-02-14T15:16:50;102151.09;;;5.81;nan
46408;BME280;32110;45.724;21.276;2023-02-14T15:19:22;102162.59;;;5.88;nan
46408;BME280;32110;45.724;21.276;2023-02-14T15:21:55;102149.59;;;5.78;nan
46408;BME280;32110;45.724;21.276;2023-02-14T15:24:20;102165.19;;;5.88;nan
46408;BME280;32110;45.724;21.276;2023-02-14T15:26:47;102157.56;;;5.76;nan
46408;BME280;32110;45.724;21.276;2023-02-14T15:29:24;102163.72;;;5.85;nan
46408;BME280;32110;45.724;21.276;2023-02-14T15:31:50;102171.69;;;5.84;nan
46408;BME280;32110;45.724;21.276;2023-02-14T15:34:19;102176.56;;;5.79;nan
46408;BME280;32110;45.724;21.276;2023-02-14T15:36:48;102154.66;;;5.62;nan
46408;BME280;32110;45.724;21.276;2023-02-14T15:39:26;102179.09;;;5.70;nan
46408;BME280;32110;45.724;21.276;2023-02-14T15:41:53;102181.53;;;5.72;nan
46408;BME280;32110;45.724;21.276;2023-02-14T15:44:22;102176.63;;;5.69;nan
46408;BME280;32110;45.724;21.276;2023-02-14T15:46:53;102183.72;;;5.59;nan
46408;BME280;32110;45.724;21.276;2023-02-14T15:49:23;102167.66;;;5.53;nan
46408;BME280;32110;45.724;21.276;2023-02-14T15:51:53;102181.09;;;5.59;nan
46408;BME280;32110;45.724;21.276;2023-02-14T15:54:24;102175.25;;;5.47;nan
46408;BME280;32110;45.724;21.276;2023-02-14T15:56:52;102173.59;;;5.46;nan
46408;BME280;32110;45.724;21.276;2023-02-14T15:59:22;102196.84;;;5.49;nan
46408;BME280;32110;45.724;21.276;2023-02-14T16:01:56;102183.28;;;5.36;nan
46408;BME280;32110;45.724;21.276;2023-02-14T16:04:33;102194.47;;;5.28;nan
46408;BME280;32110;45.724;21.276;2023-02-14T16:07:23;102197.00;;;5.20;nan
46408;BME280;32110;45.724;21.276;2023-02-14T16:10:11;102209.53;;;5.16;nan
46408;BME280;32110;45.724;21.276;2023-02-14T16:12:38;102200.31;;;5.12;nan
46408;BME280;32110;45.724;21.276;2023-02-14T16:15:17;102207.50;;;5.10;nan
46408;BME280;32110;45.724;21.276;2023-02-14T16:17:43;102199.84;;;4.99;nan
46408;BME280;32110;45.724;21.276;2023-02-14T16:25:39;102205.13;;;4.79;nan
46408;BME280;32110;45.724;21.276;2023-02-14T16:28:05;102201.56;;;4.71;nan
46408;BME280;32110;45.724;21.276;2023-02-14T16:30:31;102222.56;;;4.79;nan
46408;BME280;32110;45.724;21.276;2023-02-14T16:32:56;102222.56;;;4.79;nan
46408;BME280;32110;45.724;21.276;2023-02-14T16:35:22;102223.00;;;4.74;nan
46408;BME280;32110;45.724;21.276;2023-02-14T16:37:49;102214.50;;;4.72;nan
46408;BME280;32110;45.724;21.276;2023-02-14T16:40:24;102207.22;;;4.66;nan
46408;BME280;32110;45.724;21.276;2023-02-14T16:42:50;102240.44;;;4.74;nan
46408;BME280;32110;45.724;21.276;2023-02-14T16:45:17;102222.59;;;4.69;nan
46408;BME280;32110;45.724;21.276;2023-02-14T16:47:45;102227.66;;;4.71;nan
46408;BME280;32110;45.724;21.276;2023-02-14T16:50:11;102230.28;;;4.71;nan
46408;BME280;32110;45.724;21.276;2023-02-14T16:52:37;102212.16;;;4.59;nan
46408;BME280;32110;45.724;21.276;2023-02-14T16:55:04;102229.47;;;4.70;nan
46408;BME280;32110;45.724;21.276;2023-02-14T16:57:33;102226.47;;;4.65;nan
46408;BME280;32110;45.724;21.276;2023-02-14T17:00:00;102227.16;;;4.67;nan
46408;BME280;32110;45.724;21.276;2023-02-14T17:02:26;102234.69;;;4.70;nan
46408;BME280;32110;45.724;21.276;2023-02-14T17:04:54;102234.69;;;4.70;nan
46408;BME280;32110;45.724;21.276;2023-02-14T17:07:20;102235.50;;;4.71;nan
46408;BME280;32110;45.724;21.276;2023-02-14T17:09:50;102232.06;;;4.70;nan
46408;BME280;32110;45.724;21.276;2023-02-14T17:12:22;102217.94;;;4.63;nan
46408;BME280;32110;45.724;21.276;2023-02-14T17:14:52;102222.06;;;4.65;nan
46408;BME280;32110;45.724;21.276;2023-02-14T17:17:18;102242.09;;;4.75;nan
46408;BME280;32110;45.724;21.276;2023-02-14T17:19:44;102229.47;;;4.70;nan
46408;BME280;32110;45.724;21.276;2023-02-14T17:22:10;102235.38;;;4.72;nan
46408;BME280;32110;45.724;21.276;2023-02-14T17:24:38;102245.13;;;4.70;nan
46408;BME280;32110;45.724;21.276;2023-02-14T17:27:03;102246.34;;;4.66;nan
46408;BME280;32110;45.724;21.276;2023-02-14T17:29:29;102242.38;;;4.62;nan
46408;BME280;32110;45.724;21.276;2023-02-14T17:31:54;102251.47;;;4.58;nan
46408;BME280;32110;45.724;21.276;2023-02-14T17:34:20;102197.16;;;4.24;nan
46408;BME280;32110;45.724;21.276;2023-02-14T17:36:45;102252.00;;;4.52;nan
46408;BME280;32110;45.724;21.276;2023-02-14T17:39:11;102243.91;;;4.45;nan
46408;BME280;32110;45.724;21.276;2023-02-14T17:41:36;102250.38;;;4.41;nan
46408;BME280;32110;45.724;21.276;2023-02-14T17:44:01;102257.66;;;4.37;nan
46408;BME280;32110;45.724;21.276;2023-02-14T17:46:30;102261.91;;;4.38;nan
46408;BME280;32110;45.724;21.276;2023-02-14T17:48:56;102234.88;;;4.10;nan
46408;BME280;32110;45.724;21.276;2023-02-14T17:51:21;102267.97;;;4.29;nan
46408;BME280;32110;45.724;21.276;2023-02-14T17:53:48;102270.69;;;4.28;nan
46408;BME280;32110;45.724;21.276;2023-02-14T17:56:19;102260.25;;;4.18;nan
46408;BME280;32110;45.724;21.276;2023-02-14T17:58:46;102271.25;;;4.21;nan
46408;BME280;32110;45.724;21.276;2023-02-14T18:01:18;102248.72;;;4.11;nan
46408;BME280;32110;45.724;21.276;2023-02-14T18:03:44;102267.97;;;4.29;nan
46408;BME280;32110;45.724;21.276;2023-02-14T18:06:10;102259.53;;;4.55;nan
46408;BME280;32110;45.724;21.276;2023-02-14T18:08:38;102259.97;;;4.60;nan
46408;BME280;32110;45.724;21.276;2023-02-14T18:11:08;102272.47;;;4.46;nan
46408;BME280;32110;45.724;21.276;2023-02-14T18:13:35;102253.81;;;4.22;nan
46408;BME280;32110;45.724;21.276;2023-02-14T18:16:02;102263.84;;;4.17;nan
46408;BME280;32110;45.724;21.276;2023-02-14T18:18:28;102266.84;;;4.12;nan
46408;BME280;32110;45.724;21.276;2023-02-14T18:20:58;102264.91;;;4.04;nan
46408;BME280;32110;45.724;21.276;2023-02-14T18:23:25;102262.16;;;3.96;nan
46408;BME280;32110;45.724;21.276;2023-02-14T18:25:57;102265.28;;;3.90;nan
46408;BME280;32110;45.724;21.276;2023-02-14T18:28:24;102269.56;;;3.91;nan
46408;BME280;32110;45.724;21.276;2023-02-14T18:30:50;102265.44;;;3.89;nan
46408;BME280;32110;45.724;21.276;2023-02-14T18:33:16;102273.13;;;3.90;nan
46408;BME280;32110;45.724;21.276;2023-02-14T18:35:43;102265.44;;;3.89;nan
46408;BME280;32110;45.724;21.276;2023-02-14T18:38:08;102277.38;;;3.91;nan
46408;BME280;32110;45.724;21.276;2023-02-14T18:40:34;102264.63;;;3.88;nan
46408;BME280;32110;45.724;21.276;2023-02-14T18:43:00;102263.13;;;3.86;nan
46408;BME280;32110;45.724;21.276;2023-02-14T18:45:26;102252.94;;;3.82;nan
46408;BME280;32110;45.724;21.276;2023-02-14T18:47:51;102255.44;;;3.84;nan
46408;BME280;32110;45.724;21.276;2023-02-14T18:50:17;102266.00;;;3.92;nan
46408;BME280;32110;45.724;21.276;2023-02-14T18:52:42;102262.03;;;3.88;nan
46408;BME280;32110;45.724;21.276;2023-02-14T18:55:08;102266.97;;;3.91;nan
46408;BME280;32110;45.724;21.276;2023-02-14T18:57:34;102261.75;;;3.91;nan
46408;BME280;32110;45.724;21.276;2023-02-14T19:00:00;102250.09;;;3.86;nan
46408;BME280;32110;45.724;21.276;2023-02-14T19:02:34;102252.53;;;3.87;nan
46408;BME280;32110;45.724;21.276;2023-02-14T19:05:00;102275.06;;;3.98;nan
46408;BME280;32110;45.724;21.276;2023-02-14T19:07:25;102274.22;;;3.97;nan
46408;BME280;32110;45.724;21.276;2023-02-14T19:09:51;102270.38;;;3.92;nan
46408;BME280;32110;45.724;21.276;2023-02-14T19:12:16;102255.97;;;3.88;nan
46408;BME280;32110;45.724;21.276;2023-02-14T19:14:42;102266.84;;;3.93;nan
46408;BME280;32110;45.724;21.276;2023-02-14T19:17:07;102262.69;;;3.90;nan
46408;BME280;32110;45.724;21.276;2023-02-14T19:19:33;102252.81;;;3.84;nan
46408;BME280;32110;45.724;21.276;2023-02-14T19:21:59;102266.00;;;3.92;nan
46408;BME280;32110;45.724;21.276;2023-02-14T19:24:26;102261.63;;;3.93;nan
46408;BME280;32110;45.724;21.276;2023-02-14T19:26:51;102252.81;;;3.84;nan
46408;BME280;32110;45.724;21.276;2023-02-14T19:29:19;102259.53;;;3.87;nan
46408;BME280;32110;45.724;21.276;2023-02-14T19:31:47;102268.19;;;3.87;nan
46408;BME280;32110;45.724;21.276;2023-02-14T19:34:17;102269.56;;;3.91;nan
46408;BME280;32110;45.724;21.276;2023-02-14T19:36:43;102267.25;;;3.88;nan
46408;BME280;32110;45.724;21.276;2023-02-14T19:39:10;102268.47;;;3.94;nan
46408;BME280;32110;45.724;21.276;2023-02-14T19:41:36;102268.09;;;4.18;nan
46408;BME280;32110;45.724;21.276;2023-02-14T19:44:03;102274.00;;;4.20;nan
46408;BME280;32110;45.724;21.276;2023-02-14T19:46:30;102259.28;;;4.09;nan
46408;BME280;32110;45.724;21.276;2023-02-14T19:48:57;102258.34;;;4.00;nan
46408;BME280;32110;45.724;21.276;2023-02-14T19:51:27;102262.28;;;3.95;nan
46408;BME280;32110;45.724;21.276;2023-02-14T19:53:54;102259.13;;;3.91;nan
46408;BME280;32110;45.724;21.276;2023-02-14T19:56:22;102271.50;;;3.99;nan
46408;BME280;32110;45.724;21.276;2023-02-14T19:58:49;102251.72;;;3.87;nan
46408;BME280;32110;45.724;21.276;2023-02-14T20:03:52;102257.22;;;3.83;nan
46408;BME280;32110;45.724;21.276;2023-02-14T20:06:19;102248.41;;;3.75;nan
46408;BME280;32110;45.724;21.276;2023-02-14T20:08:46;102240.88;;;3.72;nan
46408;BME280;32110;45.724;21.276;2023-02-14T20:13:57;102255.81;;;3.79;nan
46408;BME280;32110;45.724;21.276;2023-02-14T20:16:23;102257.88;;;3.76;nan
46408;BME280;32110;45.724;21.276;2023-02-14T20:18:49;102262.41;;;3.74;nan
46408;BME280;32110;45.724;21.276;2023-02-14T20:21:19;102253.19;;;3.70;nan
46408;BME280;32110;45.724;21.276;2023-02-14T20:23:48;102260.91;;;3.71;nan
46408;BME280;32110;45.724;21.276;2023-02-14T20:26:15;102257.44;;;3.71;nan
46408;BME280;32110;45.724;21.276;2023-02-14T20:28:41;102261.97;;;3.69;nan
46408;BME280;32110;45.724;21.276;2023-02-14T20:31:13;102257.84;;;3.66;nan
46408;BME280;32110;45.724;21.276;2023-02-14T20:33:40;102262.94;;;3.68;nan
46408;BME280;32110;45.724;21.276;2023-02-14T20:36:07;102253.47;;;3.57;nan
46408;BME280;32110;45.724;21.276;2023-02-14T20:38:33;102263.31;;;3.63;nan
46408;BME280;32110;45.724;21.276;2023-02-14T20:41:06;102261.13;;;3.58;nan
46408;BME280;32110;45.724;21.276;2023-02-14T20:43:31;102257.69;;;3.58;nan
46408;BME280;32110;45.724;21.276;2023-02-14T20:45:58;102254.97;;;3.59;nan
46408;BME280;32110;45.724;21.276;2023-02-14T20:48:24;102250.28;;;3.53;nan
46408;BME280;32110;45.724;21.276;2023-02-14T20:50:49;102261.53;;;3.63;nan
46408;BME280;32110;45.724;21.276;2023-02-14T20:53:15;102263.31;;;3.63;nan
46408;BME280;32110;45.724;21.276;2023-02-14T20:55:40;102258.94;;;3.63;nan
46408;BME280;32110;45.724;21.276;2023-02-14T20:58:08;102247.00;;;3.61;nan
46408;BME280;32110;45.724;21.276;2023-02-14T21:00:33;102243.16;;;3.55;nan
46408;BME280;32110;45.724;21.276;2023-02-14T21:02:59;102265.13;;;3.62;nan
46408;BME280;32110;45.724;21.276;2023-02-14T21:05:24;102242.19;;;3.56;nan
46408;BME280;32110;45.724;21.276;2023-02-14T21:07:50;102243.97;;;3.56;nan
46408;BME280;32110;45.724;21.276;2023-02-14T21:10:15;102247.41;;;3.56;nan
46408;BME280;32110;45.724;21.276;2023-02-14T21:12:41;102236.56;;;3.51;nan
46408;BME280;32110;45.724;21.276;2023-02-14T21:15:06;102245.75;;;3.55;nan
46408;BME280;32110;45.724;21.276;2023-02-14T21:17:32;102247.16;;;3.59;nan
46408;BME280;32110;45.724;21.276;2023-02-14T21:19:58;102248.78;;;3.60;nan
46408;BME280;32110;45.724;21.276;2023-02-14T21:22:23;102243.28;;;3.54;nan
46408;BME280;32110;45.724;21.276;2023-02-14T21:24:49;102250.84;;;3.57;nan
46408;BME280;32110;45.724;21.276;2023-02-14T21:27:14;102254.69;;;3.62;nan
46408;BME280;32110;45.724;21.276;2023-02-14T21:29:40;102238.22;;;3.52;nan
46408;BME280;32110;45.724;21.276;2023-02-14T21:32:05;102192.91;;;3.24;nan
46408;BME280;32110;45.724;21.276;2023-02-14T21:34:30;102249.75;;;3.59;nan
46408;BME280;32110;45.724;21.276;2023-02-14T21:36:56;102242.06;;;3.58;nan
46408;BME280;32110;45.724;21.276;2023-02-14T21:39:21;102231.22;;;3.53;nan
46408;BME280;32110;45.724;21.276;2023-02-14T21:41:52;102246.75;;;3.64;nan
46408;BME280;32110;45.724;21.276;2023-02-14T21:44:17;102235.22;;;3.57;nan
46408;BME280;32110;45.724;21.276;2023-02-14T21:47:01;102233.69;;;3.54;nan
46408;BME280;32110;45.724;21.276;2023-02-14T21:49:27;102243.16;;;3.55;nan
46408;BME280;32110;45.724;21.276;2023-02-14T21:52:11;102256.09;;;3.67;nan
46408;BME280;32110;45.724;21.276;2023-02-14T21:54:36;102248.50;;;3.63;nan
46408;BME280;32110;45.724;21.276;2023-02-14T21:57:02;102239.59;;;3.56;nan
46408;BME280;32110;45.724;21.276;2023-02-14T21:59:27;102249.47;;;3.62;nan
46408;BME280;32110;45.724;21.276;2023-02-14T22:01:52;102252.78;;;3.65;nan
46408;BME280;32110;45.724;21.276;2023-02-14T22:04:21;102221.22;;;3.48;nan
46408;BME280;32110;45.724;21.276;2023-02-14T22:06:46;102254.03;;;3.70;nan
46408;BME280;32110;45.724;21.276;2023-02-14T22:09:12;102249.50;;;3.72;nan
46408;BME280;32110;45.724;21.276;2023-02-14T22:11:38;102235.50;;;3.63;nan
46408;BME280;32110;45.724;21.276;2023-02-14T22:14:04;102248.81;;;3.70;nan
46408;BME280;32110;45.724;21.276;2023-02-14T22:16:29;102254.59;;;3.74;nan